sensor_id;sensor_type;location;lat;lon;timestamp;pressure;altitude;pressure_sealevel;temperature
43292;BMP280;28754;47.700;7.924;2022-10-31T00:01:37;91852.31;;;19.27
43292;BMP280;28754;47.700;7.924;2022-10-31T00:04:24;91852.88;;;19.25
43292;BMP280;28754;47.700;7.924;2022-10-31T00:07:11;91850.28;;;19.25
43292;BMP280;28754;47.700;7.924;2022-10-31T00:09:58;91856.75;;;19.27
43292;BMP280;28754;47.700;7.924;2022-10-31T00:12:44;91857.97;;;19.29
43292;BMP280;28754;47.700;7.924;2022-10-31T00:15:36;91854.31;;;19.30
43292;BMP280;28754;47.700;7.924;2022-10-31T00:18:23;91843.63;;;19.32
43292;BMP280;28754;47.700;7.924;2022-10-31T00:21:10;91851.69;;;19.30
43292;BMP280;28754;47.700;7.924;2022-10-31T00:23:58;91851.88;;;19.34
43292;BMP280;28754;47.700;7.924;2022-10-31T00:26:45;91859.97;;;19.32
43292;BMP280;28754;47.700;7.924;2022-10-31T00:29:31;91850.66;;;19.31
43292;BMP280;28754;47.700;7.924;2022-10-31T00:32:18;91851.69;;;19.30
43292;BMP280;28754;47.700;7.924;2022-10-31T00:35:05;91848.06;;;19.31
43292;BMP280;28754;47.700;7.924;2022-10-31T00:37:53;91849.41;;;19.29
43292;BMP280;28754;47.700;7.924;2022-10-31T00:40:40;91838.56;;;19.27
43292;BMP280;28754;47.700;7.924;2022-10-31T00:43:26;91847.13;;;19.27
43292;BMP280;28754;47.700;7.924;2022-10-31T00:46:13;91842.41;;;19.29
43292;BMP280;28754;47.700;7.924;2022-10-31T00:49:01;91842.97;;;19.26
43292;BMP280;28754;47.700;7.924;2022-10-31T00:51:48;91836.50;;;19.16
43292;BMP280;28754;47.700;7.924;2022-10-31T00:54:35;91836.16;;;19.09
43292;BMP280;28754;47.700;7.924;2022-10-31T00:57:21;91837.31;;;19.03
43292;BMP280;28754;47.700;7.924;2022-10-31T01:00:09;91833.41;;;18.92
43292;BMP280;28754;47.700;7.924;2022-10-31T01:02:56;91836.13;;;18.87
43292;BMP280;28754;47.700;7.924;2022-10-31T01:05:42;91838.25;;;18.85
43292;BMP280;28754;47.700;7.924;2022-10-31T01:08:29;91847.53;;;18.78
43292;BMP280;28754;47.700;7.924;2022-10-31T01:11:20;91844.25;;;18.72
43292;BMP280;28754;47.700;7.924;2022-10-31T01:14:08;91850.53;;;18.71
43292;BMP280;28754;47.700;7.924;2022-10-31T01:16:55;91847.44;;;18.69
43292;BMP280;28754;47.700;7.924;2022-10-31T01:19:42;91840.25;;;18.66
43292;BMP280;28754;47.700;7.924;2022-10-31T01:22:29;91850.03;;;18.69
43292;BMP280;28754;47.700;7.924;2022-10-31T01:25:19;91841.66;;;18.72
43292;BMP280;28754;47.700;7.924;2022-10-31T01:28:05;91843.66;;;18.75
43292;BMP280;28754;47.700;7.924;2022-10-31T01:30:53;91841.38;;;18.74
43292;BMP280;28754;47.700;7.924;2022-10-31T01:33:40;91838.94;;;18.77
43292;BMP280;28754;47.700;7.924;2022-10-31T01:36:31;91837.13;;;18.78
43292;BMP280;28754;47.700;7.924;2022-10-31T01:39:19;91836.94;;;18.74
43292;BMP280;28754;47.700;7.924;2022-10-31T01:42:06;91839.81;;;18.73
43292;BMP280;28754;47.700;7.924;2022-10-31T01:44:59;91836.47;;;18.72
43292;BMP280;28754;47.700;7.924;2022-10-31T01:47:47;91834.47;;;18.69
43292;BMP280;28754;47.700;7.924;2022-10-31T01:50:38;91831.88;;;18.69
43292;BMP280;28754;47.700;7.924;2022-10-31T01:53:25;91838.13;;;18.68
43292;BMP280;28754;47.700;7.924;2022-10-31T01:56:15;91832.16;;;18.68
43292;BMP280;28754;47.700;7.924;2022-10-31T01:59:07;91828.34;;;18.65
43292;BMP280;28754;47.700;7.924;2022-10-31T02:01:55;91828.00;;;18.58
43292;BMP280;28754;47.700;7.924;2022-10-31T02:04:43;91822.31;;;18.57
43292;BMP280;28754;47.700;7.924;2022-10-31T02:07:39;91816.06;;;18.57
43292;BMP280;28754;47.700;7.924;2022-10-31T02:10:31;91821.25;;;18.57
43292;BMP280;28754;47.700;7.924;2022-10-31T02:13:20;91818.19;;;18.56
43292;BMP280;28754;47.700;7.924;2022-10-31T02:16:09;91815.91;;;18.54
43292;BMP280;28754;47.700;7.924;2022-10-31T02:18:57;91815.44;;;18.52
43292;BMP280;28754;47.700;7.924;2022-10-31T02:21:53;91818.31;;;18.51
43292;BMP280;28754;47.700;7.924;2022-10-31T02:28:41;91812.63;;;18.49
43292;BMP280;28754;47.700;7.924;2022-10-31T02:31:51;91803.34;;;18.48
43292;BMP280;28754;47.700;7.924;2022-10-31T02:41:55;91802.06;;;18.45
43292;BMP280;28754;47.700;7.924;2022-10-31T02:45:14;91798.25;;;18.43
43292;BMP280;28754;47.700;7.924;2022-10-31T02:48:12;91798.09;;;18.39
43292;BMP280;28754;47.700;7.924;2022-10-31T02:51:04;91798.38;;;18.38
43292;BMP280;28754;47.700;7.924;2022-10-31T02:53:51;91793.19;;;18.38
43292;BMP280;28754;47.700;7.924;2022-10-31T02:56:38;91786.44;;;18.37
43292;BMP280;28754;47.700;7.924;2022-10-31T02:59:25;91795.78;;;18.38
43292;BMP280;28754;47.700;7.924;2022-10-31T03:06:45;91791.00;;;18.31
43292;BMP280;28754;47.700;7.924;2022-10-31T03:09:55;91783.50;;;18.30
43292;BMP280;28754;47.700;7.924;2022-10-31T03:12:57;91779.25;;;18.34
43292;BMP280;28754;47.700;7.924;2022-10-31T03:15:51;91780.34;;;18.33
43292;BMP280;28754;47.700;7.924;2022-10-31T03:21:50;91781.25;;;18.37
43292;BMP280;28754;47.700;7.924;2022-10-31T03:24:43;91782.81;;;18.38
43292;BMP280;28754;47.700;7.924;2022-10-31T03:27:34;91785.41;;;18.38
43292;BMP280;28754;47.700;7.924;2022-10-31T03:30:22;91779.47;;;18.37
43292;BMP280;28754;47.700;7.924;2022-10-31T03:33:20;91772.56;;;18.33
43292;BMP280;28754;47.700;7.924;2022-10-31T03:36:10;91781.84;;;18.34
43292;BMP280;28754;47.700;7.924;2022-10-31T03:39:02;91783.50;;;18.30
43292;BMP280;28754;47.700;7.924;2022-10-31T03:41:59;91774.50;;;18.27
43292;BMP280;28754;47.700;7.924;2022-10-31T03:44:55;91788.81;;;18.25
43292;BMP280;28754;47.700;7.924;2022-10-31T03:47:44;91778.84;;;18.19
43292;BMP280;28754;47.700;7.924;2022-10-31T03:50:49;91777.00;;;18.19
43292;BMP280;28754;47.700;7.924;2022-10-31T03:53:50;91782.19;;;18.19
43292;BMP280;28754;47.700;7.924;2022-10-31T03:56:54;91771.19;;;18.14
43292;BMP280;28754;47.700;7.924;2022-10-31T03:59:48;91780.28;;;18.11
43292;BMP280;28754;47.700;7.924;2022-10-31T04:02:46;91770.50;;;18.08
43292;BMP280;28754;47.700;7.924;2022-10-31T04:05:35;91771.88;;;18.06
43292;BMP280;28754;47.700;7.924;2022-10-31T04:08:28;91775.78;;;18.03
43292;BMP280;28754;47.700;7.924;2022-10-31T04:11:21;91761.19;;;17.94
43292;BMP280;28754;47.700;7.924;2022-10-31T04:14:32;91774.16;;;17.94
43292;BMP280;28754;47.700;7.924;2022-10-31T04:17:23;91768.03;;;17.90
43292;BMP280;28754;47.700;7.924;2022-10-31T04:20:16;91774.25;;;17.89
43292;BMP280;28754;47.700;7.924;2022-10-31T04:23:05;91771.94;;;17.87
43292;BMP280;28754;47.700;7.924;2022-10-31T04:25:54;91766.28;;;17.86
43292;BMP280;28754;47.700;7.924;2022-10-31T04:28:42;91764.56;;;17.81
43292;BMP280;28754;47.700;7.924;2022-10-31T04:31:28;91761.22;;;17.81
43292;BMP280;28754;47.700;7.924;2022-10-31T04:34:15;91757.66;;;17.77
43292;BMP280;28754;47.700;7.924;2022-10-31T04:37:05;91761.34;;;17.76
43292;BMP280;28754;47.700;7.924;2022-10-31T04:39:52;91751.53;;;17.73
43292;BMP280;28754;47.700;7.924;2022-10-31T04:43:02;91760.38;;;17.72
43292;BMP280;28754;47.700;7.924;2022-10-31T04:45:49;91755.78;;;17.69
43292;BMP280;28754;47.700;7.924;2022-10-31T04:48:36;91755.00;;;17.68
43292;BMP280;28754;47.700;7.924;2022-10-31T04:51:25;91748.09;;;17.64
43292;BMP280;28754;47.700;7.924;2022-10-31T04:54:12;91750.69;;;17.64
43292;BMP280;28754;47.700;7.924;2022-10-31T04:57:18;91742.16;;;17.63
43292;BMP280;28754;47.700;7.924;2022-10-31T05:00:05;91745.81;;;17.62
43292;BMP280;28754;47.700;7.924;2022-10-31T05:02:56;91741.78;;;17.56
43292;BMP280;28754;47.700;7.924;2022-10-31T05:05:44;91745.91;;;17.57
43292;BMP280;28754;47.700;7.924;2022-10-31T05:08:33;91742.53;;;17.57
43292;BMP280;28754;47.700;7.924;2022-10-31T05:11:22;91737.19;;;17.53
43292;BMP280;28754;47.700;7.924;2022-10-31T05:14:10;91738.03;;;17.49
43292;BMP280;28754;47.700;7.924;2022-10-31T05:17:34;91740.63;;;17.49
43292;BMP280;28754;47.700;7.924;2022-10-31T05:20:43;91736.78;;;17.47
43292;BMP280;28754;47.700;7.924;2022-10-31T05:23:37;91746.38;;;17.46
43292;BMP280;28754;47.700;7.924;2022-10-31T05:26:26;91738.16;;;17.44
43292;BMP280;28754;47.700;7.924;2022-10-31T05:29:14;91732.22;;;17.44
43292;BMP280;28754;47.700;7.924;2022-10-31T05:32:01;91740.56;;;17.41
43292;BMP280;28754;47.700;7.924;2022-10-31T05:35:27;91732.59;;;17.37
43292;BMP280;28754;47.700;7.924;2022-10-31T05:38:43;91731.84;;;17.37
43292;BMP280;28754;47.700;7.924;2022-10-31T05:41:44;91726.72;;;17.32
43292;BMP280;28754;47.700;7.924;2022-10-31T05:44:39;91723.88;;;17.33
43292;BMP280;28754;47.700;7.924;2022-10-31T05:47:39;91721.56;;;17.32
43292;BMP280;28754;47.700;7.924;2022-10-31T05:50:48;91722.34;;;17.32
43292;BMP280;28754;47.700;7.924;2022-10-31T05:53:36;91724.44;;;17.30
43292;BMP280;28754;47.700;7.924;2022-10-31T05:56:22;91719.28;;;17.30
43292;BMP280;28754;47.700;7.924;2022-10-31T05:59:09;91721.88;;;17.30
43292;BMP280;28754;47.700;7.924;2022-10-31T06:01:57;91726.25;;;17.30
43292;BMP280;28754;47.700;7.924;2022-10-31T06:05:02;91722.34;;;17.32
43292;BMP280;28754;47.700;7.924;2022-10-31T06:07:49;91711.50;;;17.30
43292;BMP280;28754;47.700;7.924;2022-10-31T06:10:36;91707.31;;;17.34
43292;BMP280;28754;47.700;7.924;2022-10-31T06:13:23;91714.75;;;17.36
43292;BMP280;28754;47.700;7.924;2022-10-31T06:16:19;91714.97;;;17.39
43292;BMP280;28754;47.700;7.924;2022-10-31T06:19:06;91711.78;;;17.42
43292;BMP280;28754;47.700;7.924;2022-10-31T06:21:53;91715.03;;;17.48
43292;BMP280;28754;47.700;7.924;2022-10-31T06:24:40;91711.59;;;17.52
43292;BMP280;28754;47.700;7.924;2022-10-31T06:27:47;91715.13;;;17.56
43292;BMP280;28754;47.700;7.924;2022-10-31T06:30:35;91714.53;;;17.59
43292;BMP280;28754;47.700;7.924;2022-10-31T06:33:22;91714.91;;;17.66
43292;BMP280;28754;47.700;7.924;2022-10-31T06:36:17;91713.44;;;17.87
43292;BMP280;28754;47.700;7.924;2022-10-31T06:39:04;91712.13;;;18.11
43292;BMP280;28754;47.700;7.924;2022-10-31T06:41:51;91712.25;;;18.49
43292;BMP280;28754;47.700;7.924;2022-10-31T06:44:41;91712.59;;;18.99
43292;BMP280;28754;47.700;7.924;2022-10-31T06:47:54;91712.09;;;19.27
43292;BMP280;28754;47.700;7.924;2022-10-31T06:50:46;91716.41;;;19.40
43292;BMP280;28754;47.700;7.924;2022-10-31T06:53:33;91717.06;;;19.54
43292;BMP280;28754;47.700;7.924;2022-10-31T06:56:21;91710.69;;;19.68
43292;BMP280;28754;47.700;7.924;2022-10-31T06:59:12;91707.69;;;19.92
43292;BMP280;28754;47.700;7.924;2022-10-31T07:02:17;91715.19;;;20.10
43292;BMP280;28754;47.700;7.924;2022-10-31T07:05:09;91708.31;;;20.14
43292;BMP280;28754;47.700;7.924;2022-10-31T07:08:06;91716.13;;;20.22
43292;BMP280;28754;47.700;7.924;2022-10-31T07:10:56;91713.97;;;20.41
43292;BMP280;28754;47.700;7.924;2022-10-31T07:13:47;91708.91;;;20.53
43292;BMP280;28754;47.700;7.924;2022-10-31T07:16:36;91717.66;;;20.73
43292;BMP280;28754;47.700;7.924;2022-10-31T07:19:35;91712.25;;;20.78
43292;BMP280;28754;47.700;7.924;2022-10-31T07:22:31;91708.44;;;20.76
43292;BMP280;28754;47.700;7.924;2022-10-31T07:25:25;91724.69;;;20.81
43292;BMP280;28754;47.700;7.924;2022-10-31T07:28:27;91718.97;;;20.96
43292;BMP280;28754;47.700;7.924;2022-10-31T07:31:21;91723.72;;;21.02
43292;BMP280;28754;47.700;7.924;2022-10-31T07:34:13;91717.44;;;20.95
43292;BMP280;28754;47.700;7.924;2022-10-31T07:37:19;91723.84;;;20.98
43292;BMP280;28754;47.700;7.924;2022-10-31T07:40:10;91734.16;;;20.94
43292;BMP280;28754;47.700;7.924;2022-10-31T07:42:58;91728.47;;;20.92
43292;BMP280;28754;47.700;7.924;2022-10-31T07:46:03;91727.56;;;20.88
43292;BMP280;28754;47.700;7.924;2022-10-31T07:49:08;91737.06;;;20.84
43292;BMP280;28754;47.700;7.924;2022-10-31T07:52:13;91734.34;;;20.81
43292;BMP280;28754;47.700;7.924;2022-10-31T07:55:20;91735.38;;;20.80
43292;BMP280;28754;47.700;7.924;2022-10-31T07:58:14;91739.69;;;20.76
43292;BMP280;28754;47.700;7.924;2022-10-31T08:01:01;91735.09;;;20.73
43292;BMP280;28754;47.700;7.924;2022-10-31T08:04:01;91726.69;;;20.67
43292;BMP280;28754;47.700;7.924;2022-10-31T08:07:29;91730.97;;;20.64
43292;BMP280;28754;47.700;7.924;2022-10-31T08:10:32;91728.69;;;20.70
43292;BMP280;28754;47.700;7.924;2022-10-31T08:13:27;91723.00;;;20.85
43292;BMP280;28754;47.700;7.924;2022-10-31T08:16:28;91722.03;;;20.98
43292;BMP280;28754;47.700;7.924;2022-10-31T08:19:35;91721.09;;;21.11
43292;BMP280;28754;47.700;7.924;2022-10-31T08:22:22;91737.28;;;21.25
43292;BMP280;28754;47.700;7.924;2022-10-31T08:25:09;91739.69;;;21.30
43292;BMP280;28754;47.700;7.924;2022-10-31T08:27:56;91732.22;;;21.28
43292;BMP280;28754;47.700;7.924;2022-10-31T08:30:52;91730.66;;;21.27
43292;BMP280;28754;47.700;7.924;2022-10-31T08:34:00;91728.88;;;21.19
43292;BMP280;28754;47.700;7.924;2022-10-31T08:37:02;91736.22;;;21.17
43292;BMP280;28754;47.700;7.924;2022-10-31T08:40:38;91718.50;;;21.11
43292;BMP280;28754;47.700;7.924;2022-10-31T08:43:25;91716.81;;;21.06
43292;BMP280;28754;47.700;7.924;2022-10-31T08:46:16;91720.63;;;21.09
43292;BMP280;28754;47.700;7.924;2022-10-31T08:49:04;91723.53;;;21.07
43292;BMP280;28754;47.700;7.924;2022-10-31T08:51:51;91729.47;;;21.16
43292;BMP280;28754;47.700;7.924;2022-10-31T08:54:41;91725.47;;;21.27
43292;BMP280;28754;47.700;7.924;2022-10-31T08:57:57;91724.97;;;21.33
43292;BMP280;28754;47.700;7.924;2022-10-31T09:00:52;91721.31;;;21.34
43292;BMP280;28754;47.700;7.924;2022-10-31T09:03:41;91722.81;;;21.35
43292;BMP280;28754;47.700;7.924;2022-10-31T09:06:27;91715.94;;;21.39
43292;BMP280;28754;47.700;7.924;2022-10-31T09:09:14;91707.19;;;21.35
43292;BMP280;28754;47.700;7.924;2022-10-31T09:12:01;91701.56;;;21.25
43292;BMP280;28754;47.700;7.924;2022-10-31T09:15:07;91699.91;;;21.21
43292;BMP280;28754;47.700;7.924;2022-10-31T09:17:59;91694.53;;;21.26
43292;BMP280;28754;47.700;7.924;2022-10-31T09:20:50;91701.88;;;21.32
43292;BMP280;28754;47.700;7.924;2022-10-31T09:23:37;91692.66;;;21.34
43292;BMP280;28754;47.700;7.924;2022-10-31T09:26:24;91694.34;;;21.31
43292;BMP280;28754;47.700;7.924;2022-10-31T09:29:16;91687.03;;;21.24
43292;BMP280;28754;47.700;7.924;2022-10-31T09:32:04;91699.09;;;21.29
43292;BMP280;28754;47.700;7.924;2022-10-31T09:34:57;91690.44;;;21.53
43292;BMP280;28754;47.700;7.924;2022-10-31T09:37:44;91687.78;;;21.90
43292;BMP280;28754;47.700;7.924;2022-10-31T09:40:36;91687.94;;;22.34
43292;BMP280;28754;47.700;7.924;2022-10-31T09:46:46;91680.06;;;23.18
43292;BMP280;28754;47.700;7.924;2022-10-31T09:53:04;91679.00;;;24.02
43292;BMP280;28754;47.700;7.924;2022-10-31T09:55:54;91683.69;;;24.09
43292;BMP280;28754;47.700;7.924;2022-10-31T09:58:46;91674.31;;;23.96
43292;BMP280;28754;47.700;7.924;2022-10-31T10:01:47;91671.63;;;23.69
43292;BMP280;28754;47.700;7.924;2022-10-31T10:05:08;91679.31;;;23.42
43292;BMP280;28754;47.700;7.924;2022-10-31T10:08:27;91674.28;;;23.13
43292;BMP280;28754;47.700;7.924;2022-10-31T10:17:45;91665.06;;;22.51
43292;BMP280;28754;47.700;7.924;2022-10-31T10:21:06;91665.66;;;22.37
43292;BMP280;28754;47.700;7.924;2022-10-31T10:27:17;91657.75;;;22.04
43292;BMP280;28754;47.700;7.924;2022-10-31T10:30:21;91673.09;;;21.86
43292;BMP280;28754;47.700;7.924;2022-10-31T10:33:40;91665.94;;;21.74
43292;BMP280;28754;47.700;7.924;2022-10-31T10:36:37;91675.78;;;21.69
43292;BMP280;28754;47.700;7.924;2022-10-31T10:39:36;91678.56;;;21.64
43292;BMP280;28754;47.700;7.924;2022-10-31T10:42:26;91683.25;;;21.50
43292;BMP280;28754;47.700;7.924;2022-10-31T10:45:32;91700.13;;;21.44
43292;BMP280;28754;47.700;7.924;2022-10-31T10:49:02;91688.13;;;21.60
43292;BMP280;28754;47.700;7.924;2022-10-31T10:52:19;91671.06;;;22.32
43292;BMP280;28754;47.700;7.924;2022-10-31T10:55:36;91676.47;;;23.11
43292;BMP280;28754;47.700;7.924;2022-10-31T10:58:25;91688.69;;;23.42
43292;BMP280;28754;47.700;7.924;2022-10-31T11:01:14;91677.88;;;24.27
43292;BMP280;28754;47.700;7.924;2022-10-31T11:04:02;91659.38;;;25.01
43292;BMP280;28754;47.700;7.924;2022-10-31T11:07:10;91671.56;;;25.40
43292;BMP280;28754;47.700;7.924;2022-10-31T11:10:06;91668.03;;;25.32
43292;BMP280;28754;47.700;7.924;2022-10-31T11:16:13;91665.09;;;24.37
43292;BMP280;28754;47.700;7.924;2022-10-31T11:19:17;91661.94;;;24.59
43292;BMP280;28754;47.700;7.924;2022-10-31T11:22:07;91657.34;;;24.95
43292;BMP280;28754;47.700;7.924;2022-10-31T11:24:55;91668.78;;;25.33
43292;BMP280;28754;47.700;7.924;2022-10-31T11:27:42;91644.47;;;27.28
43292;BMP280;28754;47.700;7.924;2022-10-31T11:30:31;91636.63;;;29.21
43292;BMP280;28754;47.700;7.924;2022-10-31T11:33:39;91631.81;;;31.00
43292;BMP280;28754;47.700;7.924;2022-10-31T11:36:36;91628.16;;;32.36
43292;BMP280;28754;47.700;7.924;2022-10-31T11:39:24;91613.47;;;33.16
43292;BMP280;28754;47.700;7.924;2022-10-31T11:42:13;91624.53;;;33.01
43292;BMP280;28754;47.700;7.924;2022-10-31T11:45:07;91610.97;;;32.78
43292;BMP280;28754;47.700;7.924;2022-10-31T11:48:02;91614.56;;;31.58
43292;BMP280;28754;47.700;7.924;2022-10-31T11:50:57;91614.13;;;30.30
43292;BMP280;28754;47.700;7.924;2022-10-31T11:53:53;91604.47;;;30.62
43292;BMP280;28754;47.700;7.924;2022-10-31T11:56:42;91606.22;;;31.42
43292;BMP280;28754;47.700;7.924;2022-10-31T11:59:31;91594.16;;;31.89
43292;BMP280;28754;47.700;7.924;2022-10-31T12:02:19;91588.03;;;32.20
43292;BMP280;28754;47.700;7.924;2022-10-31T12:05:26;91580.09;;;32.13
43292;BMP280;28754;47.700;7.924;2022-10-31T12:08:19;91563.09;;;32.00
43292;BMP280;28754;47.700;7.924;2022-10-31T12:14:34;91547.59;;;31.78
43292;BMP280;28754;47.700;7.924;2022-10-31T12:37:12;91546.69;;;33.24
43292;BMP280;28754;47.700;7.924;2022-10-31T12:50:51;91514.56;;;33.59
43292;BMP280;28754;47.700;7.924;2022-10-31T12:57:10;91493.38;;;32.31
43292;BMP280;28754;47.700;7.924;2022-10-31T13:00:26;91488.84;;;32.28
43292;BMP280;28754;47.700;7.924;2022-10-31T13:03:35;91491.56;;;32.11
43292;BMP280;28754;47.700;7.924;2022-10-31T13:06:34;91507.16;;;31.84
43292;BMP280;28754;47.700;7.924;2022-10-31T13:12:52;91501.84;;;31.81
43292;BMP280;28754;47.700;7.924;2022-10-31T13:16:10;91482.19;;;31.72
43292;BMP280;28754;47.700;7.924;2022-10-31T13:19:08;91480.63;;;30.71
43292;BMP280;28754;47.700;7.924;2022-10-31T13:22:18;91483.56;;;29.61
43292;BMP280;28754;47.700;7.924;2022-10-31T13:25:23;91485.38;;;28.61
43292;BMP280;28754;47.700;7.924;2022-10-31T13:28:46;91462.66;;;27.84
43292;BMP280;28754;47.700;7.924;2022-10-31T13:31:33;91461.47;;;27.49
43292;BMP280;28754;47.700;7.924;2022-10-31T13:34:29;91458.78;;;27.20
43292;BMP280;28754;47.700;7.924;2022-10-31T13:37:38;91451.63;;;27.43
43292;BMP280;28754;47.700;7.924;2022-10-31T13:44:09;91443.41;;;27.48
43292;BMP280;28754;47.700;7.924;2022-10-31T13:46:57;91446.56;;;27.05
43292;BMP280;28754;47.700;7.924;2022-10-31T13:49:44;91438.22;;;26.78
43292;BMP280;28754;47.700;7.924;2022-10-31T13:52:31;91446.34;;;26.47
43292;BMP280;28754;47.700;7.924;2022-10-31T13:55:47;91447.53;;;25.90
43292;BMP280;28754;47.700;7.924;2022-10-31T13:58:35;91455.81;;;25.54
43292;BMP280;28754;47.700;7.924;2022-10-31T14:01:22;91443.22;;;25.26
43292;BMP280;28754;47.700;7.924;2022-10-31T14:04:26;91438.13;;;24.99
43292;BMP280;28754;47.700;7.924;2022-10-31T14:07:17;91445.81;;;24.77
43292;BMP280;28754;47.700;7.924;2022-10-31T14:10:26;91439.81;;;24.61
43292;BMP280;28754;47.700;7.924;2022-10-31T14:13:31;91435.53;;;24.68
43292;BMP280;28754;47.700;7.924;2022-10-31T14:16:26;91427.25;;;24.51
43292;BMP280;28754;47.700;7.924;2022-10-31T14:19:18;91429.63;;;24.25
43292;BMP280;28754;47.700;7.924;2022-10-31T14:22:23;91417.25;;;23.95
43292;BMP280;28754;47.700;7.924;2022-10-31T14:25:36;91409.16;;;23.73
43292;BMP280;28754;47.700;7.924;2022-10-31T14:28:35;91407.63;;;23.57
43292;BMP280;28754;47.700;7.924;2022-10-31T14:34:35;91399.84;;;23.60
43292;BMP280;28754;47.700;7.924;2022-10-31T14:41:13;91393.81;;;23.44
43292;BMP280;28754;47.700;7.924;2022-10-31T14:44:29;91392.00;;;23.33
43292;BMP280;28754;47.700;7.924;2022-10-31T14:50:54;91395.75;;;23.20
43292;BMP280;28754;47.700;7.924;2022-10-31T14:54:15;91391.78;;;23.38
43292;BMP280;28754;47.700;7.924;2022-10-31T14:57:15;91390.25;;;23.64
43292;BMP280;28754;47.700;7.924;2022-10-31T15:00:12;91398.84;;;23.92
43292;BMP280;28754;47.700;7.924;2022-10-31T15:03:23;91388.47;;;24.11
43292;BMP280;28754;47.700;7.924;2022-10-31T15:06:40;91398.00;;;24.18
43292;BMP280;28754;47.700;7.924;2022-10-31T15:09:36;91376.59;;;24.28
43292;BMP280;28754;47.700;7.924;2022-10-31T15:12:27;91386.88;;;24.21
43292;BMP280;28754;47.700;7.924;2022-10-31T15:15:22;91386.59;;;23.96
43292;BMP280;28754;47.700;7.924;2022-10-31T15:18:26;91384.19;;;23.76
43292;BMP280;28754;47.700;7.924;2022-10-31T15:25:41;91384.97;;;23.22
43292;BMP280;28754;47.700;7.924;2022-10-31T15:28:33;91376.63;;;23.05
43292;BMP280;28754;47.700;7.924;2022-10-31T15:31:22;91389.81;;;22.96
43292;BMP280;28754;47.700;7.924;2022-10-31T15:34:20;91378.00;;;22.87
43292;BMP280;28754;47.700;7.924;2022-10-31T15:37:16;91378.94;;;22.94
43292;BMP280;28754;47.700;7.924;2022-10-31T15:40:25;91382.41;;;22.98
43292;BMP280;28754;47.700;7.924;2022-10-31T15:43:16;91366.66;;;22.95
43292;BMP280;28754;47.700;7.924;2022-10-31T15:46:06;91372.22;;;22.93
43292;BMP280;28754;47.700;7.924;2022-10-31T15:49:37;91350.47;;;22.66
43292;BMP280;28754;47.700;7.924;2022-10-31T15:52:44;91357.69;;;22.21
43292;BMP280;28754;47.700;7.924;2022-10-31T15:55:46;91373.28;;;21.98
43292;BMP280;28754;47.700;7.924;2022-10-31T15:58:45;91366.53;;;21.85
43292;BMP280;28754;47.700;7.924;2022-10-31T16:01:33;91362.44;;;21.84
43292;BMP280;28754;47.700;7.924;2022-10-31T16:04:23;91382.63;;;21.75
43292;BMP280;28754;47.700;7.924;2022-10-31T16:07:15;91373.88;;;21.59
43292;BMP280;28754;47.700;7.924;2022-10-31T16:10:04;91386.97;;;21.51
43292;BMP280;28754;47.700;7.924;2022-10-31T16:12:54;91390.03;;;21.53
43292;BMP280;28754;47.700;7.924;2022-10-31T16:15:51;91410.06;;;21.72
43292;BMP280;28754;47.700;7.924;2022-10-31T16:18:40;91412.72;;;21.84
43292;BMP280;28754;47.700;7.924;2022-10-31T16:21:32;91403.69;;;21.94
43292;BMP280;28754;47.700;7.924;2022-10-31T16:24:31;91394.59;;;22.00
43292;BMP280;28754;47.700;7.924;2022-10-31T16:27:25;91404.38;;;22.02
43292;BMP280;28754;47.700;7.924;2022-10-31T16:30:37;91396.13;;;22.01
43292;BMP280;28754;47.700;7.924;2022-10-31T16:33:34;91398.59;;;21.97
43292;BMP280;28754;47.700;7.924;2022-10-31T16:36:32;91400.13;;;21.98
43292;BMP280;28754;47.700;7.924;2022-10-31T16:39:20;91381.66;;;21.91
43292;BMP280;28754;47.700;7.924;2022-10-31T16:42:08;91402.31;;;21.64
43292;BMP280;28754;47.700;7.924;2022-10-31T16:44:56;91398.50;;;21.50
43292;BMP280;28754;47.700;7.924;2022-10-31T16:47:43;91414.56;;;21.52
43292;BMP280;28754;47.700;7.924;2022-10-31T16:50:30;91415.34;;;21.52
43292;BMP280;28754;47.700;7.924;2022-10-31T16:53:17;91426.41;;;21.49
43292;BMP280;28754;47.700;7.924;2022-10-31T16:56:04;91428.13;;;21.45
43292;BMP280;28754;47.700;7.924;2022-10-31T16:58:51;91419.56;;;21.45
43292;BMP280;28754;47.700;7.924;2022-10-31T17:01:40;91402.69;;;21.42
43292;BMP280;28754;47.700;7.924;2022-10-31T17:04:29;91392.47;;;21.37
43292;BMP280;28754;47.700;7.924;2022-10-31T17:07:16;91414.31;;;21.25
43292;BMP280;28754;47.700;7.924;2022-10-31T17:10:03;91419.28;;;21.18
43292;BMP280;28754;47.700;7.924;2022-10-31T17:12:51;91440.13;;;21.18
43292;BMP280;28754;47.700;7.924;2022-10-31T17:15:44;91455.28;;;21.16
43292;BMP280;28754;47.700;7.924;2022-10-31T17:18:32;91452.69;;;21.16
43292;BMP280;28754;47.700;7.924;2022-10-31T17:21:22;91444.13;;;21.15
43292;BMP280;28754;47.700;7.924;2022-10-31T17:24:14;91436.63;;;21.14
43292;BMP280;28754;47.700;7.924;2022-10-31T17:27:01;91443.22;;;21.11
43292;BMP280;28754;47.700;7.924;2022-10-31T17:29:47;91446.78;;;21.07
43292;BMP280;28754;47.700;7.924;2022-10-31T17:32:34;91460.88;;;21.06
43292;BMP280;28754;47.700;7.924;2022-10-31T17:35:21;91450.66;;;21.01
43292;BMP280;28754;47.700;7.924;2022-10-31T17:38:08;91447.78;;;20.94
43292;BMP280;28754;47.700;7.924;2022-10-31T17:40:55;91449.06;;;20.88
43292;BMP280;28754;47.700;7.924;2022-10-31T17:43:42;91477.53;;;20.85
43292;BMP280;28754;47.700;7.924;2022-10-31T17:46:28;91471.47;;;20.81
43292;BMP280;28754;47.700;7.924;2022-10-31T17:49:15;91481.59;;;20.74
43292;BMP280;28754;47.700;7.924;2022-10-31T17:52:02;91476.31;;;20.62
43292;BMP280;28754;47.700;7.924;2022-10-31T17:54:48;91472.78;;;20.58
43292;BMP280;28754;47.700;7.924;2022-10-31T17:57:36;91472.16;;;20.53
43292;BMP280;28754;47.700;7.924;2022-10-31T18:00:23;91469.47;;;20.49
43292;BMP280;28754;47.700;7.924;2022-10-31T18:03:10;91467.47;;;20.46
43292;BMP280;28754;47.700;7.924;2022-10-31T18:05:58;91470.53;;;20.40
43292;BMP280;28754;47.700;7.924;2022-10-31T18:08:45;91474.56;;;20.29
43292;BMP280;28754;47.700;7.924;2022-10-31T18:11:32;91475.22;;;20.26
43292;BMP280;28754;47.700;7.924;2022-10-31T18:14:19;91482.28;;;20.17
43292;BMP280;28754;47.700;7.924;2022-10-31T18:17:07;91488.72;;;20.11
43292;BMP280;28754;47.700;7.924;2022-10-31T18:19:53;91490.72;;;20.06
43292;BMP280;28754;47.700;7.924;2022-10-31T18:22:40;91486.28;;;20.06